Time;durP1;ratioP1;P1;durP2;ratioP2;P2;SDS_P1;SDS_P2;PMS_P1;PMS_P2;Temp;Humidity;BMP_temperature;BMP_pressure;BME280_temperature;BME280_humidity;BME280_pressure;Samples;Min_cycle;Max_cycle;Signal;HPM_P1;HPM_P2
2023/10/12 00:02:27;;;;;;;13.80;4.85;;;;;;;21.39;43.65;100850.97;4954500;28;20043;-57
2023/10/12 00:05:06;;;;;;;10.10;4.15;;;;;;;21.43;43.60;100856.66;4954744;28;20030;-57
2023/10/12 00:07:38;;;;;;;9.38;4.25;;;;;;;21.52;43.05;100855.00;4954818;28;20045;-57
2023/10/12 00:12:44;;;;;;;6.07;3.40;;;;;;;21.33;43.66;100855.63;4961169;28;20058;-57
2023/10/12 00:15:38;;;;;;;13.48;4.47;;;;;;;21.17;43.86;100855.91;4943435;28;20060;-57
2023/10/12 00:18:08;;;;;;;9.65;4.07;;;;;;;21.22;43.73;100854.00;4954862;28;20043;-57
2023/10/12 00:20:38;;;;;;;7.88;4.18;;;;;;;21.28;43.20;100850.16;4947046;28;20034;-58
2023/10/12 00:23:09;;;;;;;8.02;3.78;;;;;;;21.15;43.43;100856.16;4936028;29;20587;-57
2023/10/12 00:25:45;;;;;;;10.15;4.40;;;;;;;21.04;44.66;100855.41;4954116;28;20032;-59
2023/10/12 00:28:19;;;;;;;7.82;4.05;;;;;;;21.08;44.14;100859.19;4937293;28;20107;-53
2023/10/12 00:30:47;;;;;;;10.40;4.80;;;;;;;20.99;44.85;100854.59;4935189;29;20068;-49
2023/10/12 00:33:13;;;;;;;11.65;4.88;;;;;;;20.89;45.27;100854.63;4950170;28;20472;-58
2023/10/12 00:35:40;;;;;;;8.38;3.97;;;;;;;20.94;45.36;100855.41;4953321;28;20043;-55
2023/10/12 00:38:29;;;;;;;13.50;4.90;;;;;;;20.93;45.85;100852.94;4953991;28;20035;-51
2023/10/12 00:40:58;;;;;;;10.35;5.03;;;;;;;20.71;46.22;100856.81;4948940;28;20050;-58
2023/10/12 00:43:32;;;;;;;10.32;4.43;;;;;;;20.76;46.35;100848.63;4942978;29;20019;-57
2023/10/12 00:46:12;;;;;;;12.57;5.25;;;;;;;20.68;47.47;100851.91;4937749;28;20028;-57
2023/10/12 00:48:47;;;;;;;13.82;5.28;;;;;;;20.56;47.03;100854.91;4934660;29;20433;-58
2023/10/12 00:51:16;;;;;;;9.88;4.82;;;;;;;20.57;46.76;100850.28;4934875;29;20481;-58
2023/10/12 00:53:55;;;;;;;12.48;5.30;;;;;;;20.46;47.04;100846.72;4940764;29;20049;-58
2023/10/12 00:56:24;;;;;;;12.27;5.07;;;;;;;20.35;47.29;100844.25;4934800;29;20063;-58
2023/10/12 00:58:53;;;;;;;13.75;6.00;;;;;;;20.35;48.00;100846.97;4934505;29;20062;-58
2023/10/12 01:01:20;;;;;;;11.75;5.32;;;;;;;20.25;47.84;100851.31;4950604;29;20615;-58
2023/10/12 01:03:48;;;;;;;8.82;4.53;;;;;;;20.25;47.87;100851.31;4952702;29;20035;-58
2023/10/12 01:08:43;;;;;;;8.68;5.00;;;;;;;20.10;48.53;100854.03;4945567;28;20032;-58
2023/10/12 01:11:21;;;;;;;10.20;4.43;;;;;;;20.10;49.16;100847.75;4951563;29;20392;-58
2023/10/12 01:14:12;;;;;;;10.55;5.40;;;;;;;20.10;49.71;100847.75;4950740;28;20042;-56
2023/10/12 01:19:22;;;;;;;10.55;5.07;;;;;;;19.91;50.20;100856.41;4953099;29;20028;-58
2023/10/12 01:21:54;;;;;;;14.88;5.43;;;;;;;19.83;50.44;100842.53;4936676;28;20032;-54
2023/10/12 01:24:29;;;;;;;11.82;5.43;;;;;;;19.86;50.65;100842.00;4947429;29;20465;-55
2023/10/12 01:26:56;;;;;;;9.25;5.05;;;;;;;19.74;50.84;100837.63;4953216;28;20039;-55
2023/10/12 01:29:25;;;;;;;15.25;5.43;;;;;;;19.65;51.53;100838.41;4938664;28;20028;-55
2023/10/12 01:34:36;;;;;;;8.68;4.60;;;;;;;19.40;51.84;100849.94;4952160;29;20039;-55
2023/10/12 01:37:26;;;;;;;15.00;5.20;;;;;;;19.46;52.05;100849.69;4954202;28;20023;-55
2023/10/12 01:42:49;;;;;;;12.57;5.43;;;;;;;19.26;53.44;100844.97;4934746;29;20055;-55
2023/10/12 01:50:39;;;;;;;15.23;5.63;;;;;;;18.98;54.62;100848.06;4936876;28;20066;-55
2023/10/12 01:53:33;;;;;;;14.05;5.57;;;;;;;18.96;55.11;100853.78;4953137;28;20031;-55
2023/10/12 01:55:59;;;;;;;14.52;6.20;;;;;;;18.76;56.19;100860.94;4953508;28;20031;-56
2023/10/12 01:58:28;;;;;;;15.32;5.85;;;;;;;18.65;56.20;100852.69;4954026;28;20028;-54
2023/10/12 02:01:04;;;;;;;23.33;7.20;;;;;;;18.53;57.51;100849.34;4952570;28;20471;-55
2023/10/12 02:06:00;;;;;;;17.45;5.40;;;;;;;18.34;58.13;100848.91;4953447;28;20019;-55
2023/10/12 02:08:34;;;;;;;18.38;6.20;;;;;;;18.39;57.71;100845.44;4953378;28;20035;-55
2023/10/12 02:11:45;;;;;;;14.27;5.72;;;;;;;18.27;58.49;100844.81;4953749;28;20086;-55
2023/10/12 02:13:54;;;;;;;12.82;5.25;;;;;;;18.25;58.57;100842.31;4952529;28;20118;-57
2023/10/12 02:16:25;;;;;;;17.63;5.45;;;;;;;18.34;57.92;100846.22;4943874;28;20365;-56
2023/10/12 02:18:54;;;;;;;10.20;4.50;;;;;;;18.26;58.00;100849.38;4938570;29;20036;-56
2023/10/12 02:21:22;;;;;;;11.02;4.88;;;;;;;18.15;58.37;100847.63;4957036;28;20023;-55
2023/10/12 02:29:12;;;;;;;14.07;5.22;;;;;;;18.17;58.11;100849.03;4948426;29;20432;-55
2023/10/12 02:34:27;;;;;;;7.70;4.10;;;;;;;18.10;58.23;100856.56;4938660;29;20032;-55
2023/10/12 02:39:40;;;;;;;7.88;4.13;;;;;;;18.08;58.51;100857.88;4956341;28;20030;-55
2023/10/12 02:42:17;;;;;;;10.40;4.43;;;;;;;18.11;58.30;100851.97;4969467;28;20034;-55
2023/10/12 02:47:22;;;;;;;10.18;4.47;;;;;;;17.93;59.20;100853.09;4956480;28;20500;-55
2023/10/12 02:50:57;;;;;;;13.05;4.63;;;;;;;17.83;59.50;100861.13;4955965;28;20058;-55
2023/10/12 02:52:51;;;;;;;11.18;4.63;;;;;;;17.74;59.51;100863.47;4947427;28;20099;-55
2023/10/12 02:57:59;;;;;;;11.32;4.78;;;;;;;17.36;59.90;100869.72;4956132;28;20031;-55
2023/10/12 03:00:44;;;;;;;10.13;5.05;;;;;;;17.59;58.90;100864.06;4955488;28;20399;-55
2023/10/12 03:03:33;;;;;;;10.05;5.25;;;;;;;17.25;60.04;100859.81;4956239;28;20031;-55
2023/10/12 03:06:06;;;;;;;12.20;5.30;;;;;;;17.08;60.40;100854.44;4955954;28;20118;-55
2023/10/12 03:08:45;;;;;;;11.15;5.13;;;;;;;17.30;59.97;100859.88;4955952;28;20078;-55
2023/10/12 03:11:12;;;;;;;10.50;5.22;;;;;;;17.07;60.24;100856.34;4948709;28;20028;-55
2023/10/12 03:13:42;;;;;;;15.40;6.28;;;;;;;17.50;59.52;100864.75;4939907;29;20057;-55
2023/10/12 03:18:39;;;;;;;13.65;6.00;;;;;;;16.76;61.88;100860.44;4955677;28;20035;-55
2023/10/12 03:21:11;;;;;;;14.45;5.50;;;;;;;16.60;62.77;100853.97;4955513;28;20039;-55
2023/10/12 03:23:43;;;;;;;13.27;5.00;;;;;;;16.54;62.99;100863.03;4949288;28;20035;-55
2023/10/12 03:26:25;;;;;;;14.40;5.82;;;;;;;16.38;63.76;100869.28;4935592;29;20036;-55
2023/10/12 03:34:35;;;;;;;15.45;6.88;;;;;;;16.16;65.08;100862.91;4954785;28;20019;-55
2023/10/12 03:37:14;;;;;;;16.52;5.90;;;;;;;16.35;64.11;100861.63;4956250;28;20035;-55
2023/10/12 03:40:23;;;;;;;11.88;5.18;;;;;;;16.24;64.23;100873.31;4955004;28;20483;-55
2023/10/12 03:45:07;;;;;;;12.73;5.53;;;;;;;15.97;65.11;100879.31;4954293;28;20110;-55
2023/10/12 03:47:46;;;;;;;8.82;5.00;;;;;;;16.14;64.53;100873.13;4954873;28;20027;-55
2023/10/12 03:50:17;;;;;;;10.07;5.18;;;;;;;16.13;64.18;100876.91;4938433;29;20032;-54
2023/10/12 03:52:52;;;;;;;12.55;5.32;;;;;;;16.48;63.73;100876.72;4980752;23;20081;-55
2023/10/12 03:55:28;;;;;;;;;;;;;;;16.19;64.11;100878.63;4993995;28;20479;-55
2023/10/12 03:58:06;;;;;;;13.82;5.82;;;;;;;16.01;65.11;100883.16;4993716;28;20376;-55
2023/10/12 04:00:48;;;;;;;14.90;5.95;;;;;;;16.22;64.76;100891.66;4993454;28;20029;-55
2023/10/12 04:03:34;;;;;;;12.98;5.82;;;;;;;16.03;64.97;100891.84;4993413;28;20382;-55
2023/10/12 04:06:09;;;;;;;14.82;5.70;;;;;;;16.02;64.65;100895.59;4973987;28;20088;-54
2023/10/12 04:08:39;;;;;;;14.07;5.90;;;;;;;16.12;65.00;100895.00;4987505;28;20157;-55
2023/10/12 04:21:22;;;;;;;16.38;8.55;;;;;;;15.88;67.69;100905.06;4981595;28;20031;-54
2023/10/12 04:29:21;;;;;;;12.90;5.88;;;;;;;15.93;67.89;100904.31;4991035;28;20027;-54
2023/10/12 04:31:56;;;;;;;12.77;7.03;;;;;;;15.90;67.65;100900.22;4973661;28;20086;-54
2023/10/12 04:34:29;;;;;;;12.07;6.55;;;;;;;15.92;67.73;100899.97;4982738;28;20026;-54
2023/10/12 04:37:08;;;;;;;19.33;8.10;;;;;;;15.93;68.21;100898.91;4991929;28;20027;-55
2023/10/12 04:39:37;;;;;;;13.95;7.07;;;;;;;15.95;68.02;100902.22;4992933;28;20055;-55
2023/10/12 04:42:11;;;;;;;13.23;7.10;;;;;;;15.92;68.47;100908.09;4995801;28;20098;-55
2023/10/12 04:44:43;;;;;;;14.02;6.32;;;;;;;15.73;69.14;100908.25;4995847;28;20037;-55
2023/10/12 04:47:11;;;;;;;12.65;5.95;;;;;;;15.73;69.32;100893.94;4992707;28;20373;-55
2023/10/12 04:57:27;;;;;;;17.33;5.68;;;;;;;15.61;69.97;100909.31;4992649;28;20076;-55
2023/10/12 05:00:12;;;;;;;12.85;5.60;;;;;;;15.53;69.11;100910.47;4992467;28;20035;-54
2023/10/12 05:13:06;;;;;;;9.60;4.82;;;;;;;15.42;68.57;100901.34;4972453;28;20030;-55
2023/10/12 05:16:09;;;;;;;9.60;4.68;;;;;;;15.53;68.32;100889.72;4972787;28;20407;-55
2023/10/12 05:18:28;;;;;;;11.98;4.75;;;;;;;15.45;68.50;100902.78;4971786;28;20035;-54
2023/10/12 05:20:54;;;;;;;9.93;5.05;;;;;;;15.40;68.81;100900.78;4972986;28;20027;-53
2023/10/12 05:23:21;;;;;;;13.45;5.43;;;;;;;15.24;69.66;100901.50;4972746;28;20023;-54
2023/10/12 05:25:50;;;;;;;13.05;5.90;;;;;;;15.20;70.71;100894.91;4985444;28;20030;-55
2023/10/12 05:28:18;;;;;;;15.50;5.60;;;;;;;15.50;70.09;100897.50;4986336;28;20042;-53
2023/10/12 05:36:09;;;;;;;10.80;5.20;;;;;;;15.17;71.38;100890.00;4972713;28;20086;-52
2023/10/12 05:38:37;;;;;;;11.15;5.05;;;;;;;15.08;71.61;100902.19;4972442;28;20031;-55
2023/10/12 05:41:04;;;;;;;11.18;5.22;;;;;;;15.02;71.44;100899.38;4972529;28;20514;-55
2023/10/12 05:43:36;;;;;;;11.15;5.32;;;;;;;15.16;70.98;100899.16;4972427;28;20050;-54
2023/10/12 05:46:15;;;;;;;11.93;5.20;;;;;;;15.11;71.01;100893.66;4972850;28;20035;-55
2023/10/12 05:48:46;;;;;;;16.10;5.25;;;;;;;15.17;71.79;100895.41;4975101;28;20395;-55
2023/10/12 05:51:15;;;;;;;13.95;5.35;;;;;;;15.16;72.56;100897.28;4976276;28;20509;-54
2023/10/12 05:53:41;;;;;;;10.32;5.55;;;;;;;15.23;72.29;100895.28;4976040;28;20043;-53
2023/10/12 05:56:07;;;;;;;11.93;4.90;;;;;;;15.29;72.38;100894.34;4995177;28;20027;-55
2023/10/12 05:58:34;;;;;;;13.25;5.65;;;;;;;15.27;72.40;100898.34;4995440;28;20053;-55
2023/10/12 06:01:08;;;;;;;13.50;5.10;;;;;;;15.40;71.73;100905.34;4980706;28;20023;-55
2023/10/12 06:03:46;;;;;;;15.43;5.22;;;;;;;15.33;71.87;100902.78;4975912;28;20027;-56
2023/10/12 06:06:13;;;;;;;8.95;4.30;;;;;;;15.52;71.11;100901.56;4976246;28;20041;-55
2023/10/12 06:08:40;;;;;;;12.73;4.63;;;;;;;15.51;71.11;100901.81;4978554;28;20035;-55
2023/10/12 06:11:07;;;;;;;8.80;4.68;;;;;;;15.65;70.50;100899.69;4975784;28;20038;-54
2023/10/12 06:13:43;;;;;;;9.68;4.25;;;;;;;15.56;70.79;100905.44;4975393;28;20039;-54
2023/10/12 06:16:17;;;;;;;10.00;4.22;;;;;;;15.51;70.71;100909.91;4975932;28;20027;-55
2023/10/12 06:18:44;;;;;;;7.53;4.32;;;;;;;15.49;70.99;100912.84;4976053;28;20027;-55
2023/10/12 06:21:20;;;;;;;6.50;3.50;;;;;;;15.42;70.77;100908.63;4984868;28;20062;-56
2023/10/12 06:23:51;;;;;;;8.88;4.22;;;;;;;15.45;71.26;100914.38;4995065;28;20030;-55
2023/10/12 06:26:34;;;;;;;10.70;4.68;;;;;;;15.40;70.96;100916.97;4991426;28;20030;-54
2023/10/12 06:29:01;;;;;;;8.27;4.20;;;;;;;15.37;70.96;100911.19;4975756;28;20030;-55
2023/10/12 06:31:31;;;;;;;5.38;3.72;;;;;;;15.29;70.98;100904.31;4975735;28;20054;-55
2023/10/12 06:34:00;;;;;;;6.90;3.72;;;;;;;15.25;70.80;100909.34;4975118;28;20031;-55
2023/10/12 06:36:37;;;;;;;10.27;4.20;;;;;;;15.25;70.50;100908.53;4978789;28;20066;-55
2023/10/12 06:44:25;;;;;;;11.65;4.40;;;;;;;15.12;70.40;100900.69;4974848;28;20113;-54
2023/10/12 06:47:09;;;;;;;11.82;4.15;;;;;;;15.08;70.56;100900.31;4977004;28;20027;-55
2023/10/12 06:49:35;;;;;;;11.55;4.82;;;;;;;15.08;71.42;100899.50;4994761;28;20061;-54
2023/10/12 06:52:01;;;;;;;10.10;4.70;;;;;;;14.96;71.95;100897.63;4994878;28;20121;-55
2023/10/12 06:54:33;;;;;;;7.57;4.35;;;;;;;14.87;72.29;100911.66;4992486;28;20479;-55
2023/10/12 06:57:52;;;;;;;12.85;4.65;;;;;;;14.79;72.36;100905.56;4974917;28;20031;-55
2023/10/12 07:02:43;;;;;;;14.52;5.57;;;;;;;14.79;71.96;100902.88;4970356;28;20042;-54
2023/10/12 07:05:10;;;;;;;6.45;3.92;;;;;;;14.83;71.81;100902.41;4975002;28;20387;-55
2023/10/12 07:07:42;;;;;;;8.85;4.10;;;;;;;14.77;72.13;100912.25;4974988;28;20475;-56
2023/10/12 07:15:14;;;;;;;12.60;4.53;;;;;;;14.83;72.51;100911.31;4984350;28;20496;-55
2023/10/12 07:17:49;;;;;;;7.72;4.10;;;;;;;14.82;72.56;100922.31;4983468;28;20507;-54
2023/10/12 07:23:05;;;;;;;10.45;4.30;;;;;;;14.94;72.00;100915.09;4989731;28;20026;-54
2023/10/12 07:25:35;;;;;;;16.05;5.35;;;;;;;14.70;73.58;100912.34;4981805;28;20026;-52
2023/10/12 07:28:02;;;;;;;8.80;4.13;;;;;;;15.15;72.16;100909.09;4994047;28;20032;-54
2023/10/12 07:30:42;;;;;;;14.48;4.80;;;;;;;15.01;72.42;100905.00;4999887;28;20062;-54
2023/10/12 07:33:09;;;;;;;8.35;3.85;;;;;;;15.02;72.75;100902.06;4993797;28;20026;-54
2023/10/12 07:35:41;;;;;;;7.93;4.10;;;;;;;15.25;72.02;100895.03;4993880;28;20026;-53
2023/10/12 07:38:28;;;;;;;11.38;3.95;;;;;;;15.09;72.32;100898.44;4978475;28;20034;-56
2023/10/12 07:43:20;;;;;;;10.55;3.92;;;;;;;14.85;73.02;100886.84;4983631;28;20109;-58
2023/10/12 07:45:49;;;;;;;10.48;4.45;;;;;;;14.99;72.62;100893.63;4993082;28;20027;-58
2023/10/12 07:48:39;;;;;;;10.10;4.25;;;;;;;14.86;73.04;100899.25;4992700;28;20053;-58
2023/10/12 07:51:16;;;;;;;9.38;3.88;;;;;;;14.98;72.21;100900.88;4992269;28;20022;-57
2023/10/12 07:53:44;;;;;;;9.85;4.47;;;;;;;14.88;72.81;100899.81;4992375;28;20406;-57
2023/10/12 07:56:16;;;;;;;9.95;3.58;;;;;;;14.94;72.91;100897.03;4993686;28;20110;-58
2023/10/12 07:58:51;;;;;;;11.02;3.83;;;;;;;14.95;72.74;100897.84;4981512;28;20027;-57
2023/10/12 08:02:08;;;;;;;10.45;3.80;;;;;;;14.87;72.94;100900.88;4993767;28;20022;-57
2023/10/12 08:04:28;;;;;;;5.68;3.17;;;;;;;14.95;72.19;100903.25;4985712;28;20042;-57
2023/10/12 08:06:53;;;;;;;14.45;4.28;;;;;;;14.97;71.84;100901.94;4992175;28;20368;-56
2023/10/12 08:11:53;;;;;;;10.90;3.80;;;;;;;15.01;71.86;100896.94;4990029;28;20027;-56
2023/10/12 08:14:39;;;;;;;9.95;4.07;;;;;;;15.17;71.45;100890.84;4992011;28;20157;-56
2023/10/12 08:20:43;;;;;;;10.98;3.53;;;;;;;14.76;73.06;100902.50;4991795;28;20120;-56
2023/10/12 08:22:42;;;;;;;9.23;3.65;;;;;;;14.70;73.44;100906.94;4992275;28;20034;-56
2023/10/12 08:25:08;;;;;;;7.38;3.70;;;;;;;14.68;73.13;100902.84;4991927;28;20031;-57
2023/10/12 08:28:05;;;;;;;7.57;3.30;;;;;;;14.80;72.78;100903.69;4992536;28;20034;-57
2023/10/12 08:33:48;;;;;;;4.57;2.92;;;;;;;14.56;73.10;100889.38;4991561;28;20116;-57
2023/10/12 08:38:52;;;;;;;9.88;4.20;;;;;;;14.43;73.10;100893.03;4990138;28;20034;-57
2023/10/12 08:43:59;;;;;;;11.88;4.22;;;;;;;14.53;73.09;100881.75;4986998;28;20475;-57
2023/10/12 08:52:18;;;;;;;16.00;4.85;;;;;;;14.48;73.58;100892.38;4980526;28;20030;-57
2023/10/12 08:54:54;;;;;;;8.88;3.97;;;;;;;14.40;73.85;100881.91;4992183;28;20416;-56
2023/10/12 08:57:38;;;;;;;9.18;3.75;;;;;;;14.12;74.88;100888.72;4987807;28;20041;-57
2023/10/12 09:00:25;;;;;;;10.70;4.25;;;;;;;13.94;75.77;100884.22;4991077;28;20486;-58
2023/10/12 09:03:05;;;;;;;8.35;3.40;;;;;;;13.93;75.92;100881.72;4992276;28;20101;-58
2023/10/12 09:05:36;;;;;;;7.13;3.42;;;;;;;13.88;75.96;100890.50;4992323;28;20108;-57
2023/10/12 09:08:39;;;;;;;8.70;3.47;;;;;;;13.86;76.05;100883.69;4992560;28;20037;-55
2023/10/12 09:13:37;;;;;;;12.45;4.07;;;;;;;13.84;76.72;100888.50;4991056;28;20027;-57
2023/10/12 09:16:11;;;;;;;10.27;3.63;;;;;;;13.90;76.01;100887.59;4990950;28;20117;-57
2023/10/12 09:18:49;;;;;;;6.90;3.35;;;;;;;13.83;76.25;100884.16;4992437;28;20410;-56
2023/10/12 09:26:37;;;;;;;8.25;3.83;;;;;;;13.69;75.42;100878.09;4994691;28;20103;-56
2023/10/12 09:36:38;;;;;;;10.35;4.25;;;;;;;13.62;75.58;100877.38;4994880;28;20113;-58
2023/10/12 09:39:15;;;;;;;6.47;3.63;;;;;;;13.51;75.90;100875.44;4995423;28;20030;-58
2023/10/12 09:42:09;;;;;;;7.30;3.53;;;;;;;13.41;75.77;100874.09;4993511;28;20497;-58
2023/10/12 09:44:37;;;;;;;7.72;3.75;;;;;;;13.36;76.38;100882.00;4992047;28;20117;-58
2023/10/12 09:47:11;;;;;;;10.15;3.38;;;;;;;13.34;76.14;100873.34;4985113;28;20390;-57
2023/10/12 09:49:46;;;;;;;8.35;3.47;;;;;;;13.30;76.66;100869.44;4995982;28;20080;-57
2023/10/12 09:52:13;;;;;;;9.02;3.30;;;;;;;13.33;76.65;100869.00;4996035;28;20050;-56
2023/10/12 09:54:49;;;;;;;7.25;3.00;;;;;;;13.30;76.61;100872.13;4995209;28;20034;-57
2023/10/12 09:57:23;;;;;;;9.25;3.78;;;;;;;13.18;78.17;100881.94;4995726;28;20110;-56
2023/10/12 09:59:53;;;;;;;8.67;3.73;;;;;;;13.26;77.25;100881.69;4995653;28;20065;-56
2023/10/12 10:02:30;;;;;;;4.88;3.00;;;;;;;13.14;77.43;100865.44;4994873;28;20343;-57
2023/10/12 10:07:58;;;;;;;10.70;3.45;;;;;;;13.15;77.66;100868.94;4995293;28;20194;-57
2023/10/12 10:10:32;;;;;;;5.32;3.28;;;;;;;13.12;77.63;100872.91;4993100;28;20134;-55
2023/10/12 10:13:10;;;;;;;8.65;3.40;;;;;;;13.19;78.15;100875.53;4994364;28;20494;-56
2023/10/12 10:15:55;;;;;;;5.95;3.13;;;;;;;13.06;78.88;100870.28;4993108;28;20066;-57
2023/10/12 10:18:25;;;;;;;9.23;3.80;;;;;;;13.08;79.99;100877.06;4994489;28;20061;-56
2023/10/12 10:21:06;;;;;;;9.57;3.95;;;;;;;13.12;80.57;100861.34;4994308;28;20034;-57
2023/10/12 10:23:37;;;;;;;7.53;3.72;;;;;;;13.29;80.39;100861.63;4994985;28;20564;-57
2023/10/12 10:26:24;;;;;;;11.73;4.05;;;;;;;13.32;80.67;100861.16;4993602;28;20148;-56
2023/10/12 10:29:06;;;;;;;6.55;3.38;;;;;;;13.26;82.42;100860.19;4987757;28;20049;-57
2023/10/12 10:31:43;;;;;;;9.70;3.88;;;;;;;13.53;82.33;100851.81;4993925;28;20038;-56
2023/10/12 10:34:14;;;;;;;10.13;3.33;;;;;;;13.48;82.69;100849.81;4992480;28;20030;-56
2023/10/12 10:36:44;;;;;;;13.45;3.65;;;;;;;13.54;82.60;100853.47;4993292;28;20026;-57
2023/10/12 10:41:46;;;;;;;10.60;3.65;;;;;;;13.21;84.33;100843.91;4992040;28;20395;-57
2023/10/12 10:44:17;;;;;;;9.60;3.75;;;;;;;13.31;83.75;100846.06;4992695;28;20026;-56
2023/10/12 10:46:48;;;;;;;10.93;3.58;;;;;;;13.15;84.55;100839.38;4993967;28;20053;-56
2023/10/12 10:49:16;;;;;;;12.98;3.53;;;;;;;13.25;83.88;100841.59;4980340;28;20034;-57
2023/10/12 10:52:26;;;;;;;13.85;4.10;;;;;;;13.25;83.58;100846.97;4990287;28;20418;-57
2023/10/12 10:54:56;;;;;;;6.80;3.40;;;;;;;13.15;83.77;100844.75;4991561;28;20137;-57
2023/10/12 10:57:31;;;;;;;13.80;3.55;;;;;;;13.26;83.75;100849.44;4979263;28;20034;-57
2023/10/12 10:59:57;;;;;;;5.13;2.97;;;;;;;13.38;83.00;100849.50;4992551;28;20072;-56
2023/10/12 11:02:24;;;;;;;8.77;3.80;;;;;;;13.38;82.82;100850.34;4992974;28;20031;-56
2023/10/12 11:04:59;;;;;;;12.55;4.78;;;;;;;13.32;82.85;100845.84;4993631;28;20041;-55
2023/10/12 11:07:26;;;;;;;10.90;3.90;;;;;;;13.32;82.90;100850.41;4983634;28;20022;-54
2023/10/12 11:12:30;;;;;;;8.35;3.55;;;;;;;13.21;82.56;100849.28;4992483;28;20040;-56
2023/10/12 11:17:41;;;;;;;14.68;3.75;;;;;;;13.16;83.07;100859.88;4993070;28;20502;-55
2023/10/12 11:20:40;;;;;;;8.50;4.10;;;;;;;13.16;82.77;100863.38;4992350;28;20023;-56
2023/10/12 11:23:10;;;;;;;10.32;3.95;;;;;;;12.93;84.00;100857.78;4993480;28;20034;-57
2023/10/12 11:25:41;;;;;;;10.82;3.60;;;;;;;12.84;84.59;100862.63;4992383;28;20117;-56
2023/10/12 11:28:20;;;;;;;8.07;3.53;;;;;;;12.90;83.79;100852.88;4993177;28;20379;-55
2023/10/12 11:30:49;;;;;;;8.57;3.50;;;;;;;12.87;84.02;100859.50;4993000;28;20037;-57
2023/10/12 11:33:16;;;;;;;12.32;4.15;;;;;;;12.97;83.03;100859.00;4981389;28;20026;-55
2023/10/12 11:35:43;;;;;;;10.45;3.72;;;;;;;13.06;82.76;100864.91;4993026;28;20038;-54
2023/10/12 11:38:17;;;;;;;9.85;3.75;;;;;;;12.92;83.09;100862.34;4990868;28;20106;-55
2023/10/12 11:40:55;;;;;;;10.95;3.47;;;;;;;12.83;83.36;100869.06;4992759;28;20033;-56
2023/10/12 11:43:28;;;;;;;8.82;4.18;;;;;;;12.78;83.63;100868.06;4991439;28;20042;-56
2023/10/12 11:46:01;;;;;;;8.52;3.45;;;;;;;12.77;83.92;100869.09;4992992;28;20038;-57
2023/10/12 11:48:29;;;;;;;9.00;3.83;;;;;;;12.80;83.84;100872.16;4993311;28;20018;-57
2023/10/12 11:51:11;;;;;;;10.48;3.78;;;;;;;12.97;82.98;100864.38;4993662;28;20066;-56
2023/10/12 11:53:41;;;;;;;8.40;3.38;;;;;;;12.84;83.38;100869.88;4992791;28;20121;-56
2023/10/12 11:56:14;;;;;;;7.43;3.30;;;;;;;12.90;83.00;100867.13;4993450;28;20034;-57
2023/10/12 11:58:43;;;;;;;8.45;3.08;;;;;;;13.05;82.60;100885.59;4992044;28;20121;-57
2023/10/12 12:01:10;;;;;;;16.17;3.38;;;;;;;13.19;82.00;100880.91;4992217;28;20069;-57
2023/10/12 12:03:39;;;;;;;11.32;4.07;;;;;;;13.31;81.38;100867.56;4990889;28;20034;-57
2023/10/12 12:06:11;;;;;;;9.73;3.78;;;;;;;12.94;82.51;100875.56;4992503;28;20022;-56
2023/10/12 12:08:40;;;;;;;11.18;2.90;;;;;;;12.92;82.56;100872.25;4992204;28;20030;-56
2023/10/12 12:11:09;;;;;;;8.02;3.67;;;;;;;12.97;82.80;100876.97;4992962;28;20042;-56
2023/10/12 12:13:35;;;;;;;11.23;3.65;;;;;;;13.05;82.67;100876.72;4984653;28;20038;-56
2023/10/12 12:16:02;;;;;;;9.23;3.53;;;;;;;12.97;82.79;100880.50;4989562;28;20037;-56
2023/10/12 12:18:29;;;;;;;8.07;3.40;;;;;;;12.76;84.29;100876.31;4991169;28;20037;-56
2023/10/12 12:20:56;;;;;;;7.00;3.38;;;;;;;12.84;83.97;100875.25;4991504;28;20053;-56
2023/10/12 12:23:33;;;;;;;7.82;3.38;;;;;;;12.89;83.60;100875.41;4992884;28;20036;-56
2023/10/12 12:26:04;;;;;;;8.35;3.53;;;;;;;12.82;84.01;100880.81;4992343;28;20501;-57
2023/10/12 12:28:43;;;;;;;6.78;2.70;;;;;;;12.77;84.47;100886.06;4992263;28;20510;-57
2023/10/12 12:31:16;;;;;;;7.22;3.05;;;;;;;12.86;83.68;100884.72;4989547;28;20094;-56
2023/10/12 12:33:43;;;;;;;8.13;3.55;;;;;;;12.92;83.18;100888.38;4991518;28;20030;-57
2023/10/12 12:36:22;;;;;;;6.75;3.25;;;;;;;12.98;83.25;100884.00;4991757;28;20150;-57
2023/10/12 12:38:57;;;;;;;6.10;3.30;;;;;;;12.85;83.79;100883.06;4990539;28;20030;-57
2023/10/12 12:41:23;;;;;;;11.35;3.72;;;;;;;12.78;83.38;100892.25;4985151;28;20042;-57
2023/10/12 12:43:51;;;;;;;7.43;3.13;;;;;;;12.72;84.28;100893.13;4991255;28;20034;-57
2023/10/12 12:46:19;;;;;;;7.38;3.33;;;;;;;12.65;84.61;100898.53;4991817;28;20022;-56
2023/10/12 12:48:49;;;;;;;8.00;3.33;;;;;;;12.92;83.58;100896.44;4991628;28;20060;-57
2023/10/12 12:51:16;;;;;;;7.00;3.15;;;;;;;12.81;84.31;100895.28;4991677;28;20077;-56
2023/10/12 12:53:46;;;;;;;7.70;3.38;;;;;;;12.86;84.22;100897.31;4991380;28;20050;-56
2023/10/12 12:56:17;;;;;;;9.00;3.38;;;;;;;12.81;84.34;100897.16;4990772;28;20453;-57
2023/10/12 12:58:48;;;;;;;7.55;3.03;;;;;;;13.03;83.62;100900.28;4987329;28;20479;-57
2023/10/12 13:01:16;;;;;;;7.05;2.92;;;;;;;12.88;84.10;100904.13;4993268;28;20026;-54
2023/10/12 13:03:43;;;;;;;7.68;3.10;;;;;;;12.83;84.19;100901.28;4992200;28;20108;-58
2023/10/12 13:06:10;;;;;;;9.90;3.42;;;;;;;12.85;84.34;100915.31;4990941;28;20606;-58
2023/10/12 13:08:37;;;;;;;6.47;3.58;;;;;;;12.82;84.66;100914.91;4983096;28;20039;-58
2023/10/12 13:11:06;;;;;;;11.27;3.65;;;;;;;12.74;84.74;100912.50;4991057;28;20364;-58
2023/10/12 13:13:39;;;;;;;9.95;3.38;;;;;;;12.99;83.87;100909.81;4991344;28;20089;-57
2023/10/12 13:16:12;;;;;;;7.93;3.33;;;;;;;12.72;84.79;100914.59;4990664;28;20109;-58
2023/10/12 13:18:38;;;;;;;7.45;3.22;;;;;;;12.89;84.34;100924.59;4990061;28;20026;-58
2023/10/12 13:21:14;;;;;;;8.40;3.60;;;;;;;12.71;85.16;100921.81;4988792;28;20387;-58
2023/10/12 13:23:42;;;;;;;11.43;3.83;;;;;;;12.77;84.75;100923.66;4991290;28;20026;-57
2023/10/12 13:26:09;;;;;;;10.13;3.67;;;;;;;12.81;84.35;100930.22;4991713;28;20098;-57
2023/10/12 13:28:37;;;;;;;7.65;3.40;;;;;;;12.83;84.56;100935.38;4990958;28;20425;-57
2023/10/12 13:31:05;;;;;;;8.38;3.33;;;;;;;12.80;84.45;100936.63;4990539;28;20298;-57
2023/10/12 13:33:34;;;;;;;9.73;3.08;;;;;;;12.64;85.01;100931.78;4991333;28;20030;-56
2023/10/12 13:36:01;;;;;;;7.82;3.63;;;;;;;12.62;85.21;100941.94;4992423;28;20113;-57
2023/10/12 13:38:31;;;;;;;8.07;4.07;;;;;;;12.62;85.65;100940.06;4990928;28;20479;-57
2023/10/12 13:40:57;;;;;;;7.95;3.63;;;;;;;12.60;85.80;100944.84;4991017;28;20426;-57
2023/10/12 13:43:30;;;;;;;8.13;3.65;;;;;;;12.48;86.69;100937.69;4991094;28;20061;-56
2023/10/12 13:45:56;;;;;;;9.07;3.78;;;;;;;12.39;87.17;100934.44;4992375;28;20035;-57
2023/10/12 13:48:27;;;;;;;7.50;3.17;;;;;;;12.45;87.13;100932.75;4992473;28;20045;-57
2023/10/12 13:50:59;;;;;;;8.77;3.90;;;;;;;12.53;86.58;100938.69;4992430;28;20034;-54
2023/10/12 13:53:29;;;;;;;7.80;3.40;;;;;;;12.43;87.53;100952.56;4990774;28;20046;-53
2023/10/12 13:55:56;;;;;;;10.45;3.65;;;;;;;12.39;88.45;100942.50;4975429;28;20027;-53
2023/10/12 13:58:25;;;;;;;7.80;3.90;;;;;;;12.40;88.31;100931.53;4972270;28;20077;-53
2023/10/12 14:00:53;;;;;;;9.90;3.50;;;;;;;12.41;88.18;100938.53;4983908;28;20490;-54
2023/10/12 14:03:30;;;;;;;7.55;3.28;;;;;;;12.43;88.00;100941.00;4990617;28;20037;-54
2023/10/12 14:06:02;;;;;;;11.05;3.72;;;;;;;12.34;88.46;100939.63;4988233;28;20030;-53
2023/10/12 14:08:32;;;;;;;6.10;3.35;;;;;;;12.42;87.92;100948.25;4984861;28;20030;-54
2023/10/12 14:11:03;;;;;;;9.18;4.30;;;;;;;12.36;88.36;100942.91;4990141;28;20372;-52
2023/10/12 14:13:31;;;;;;;7.70;3.55;;;;;;;12.34;88.26;100939.63;4982765;28;20468;-53
2023/10/12 14:15:58;;;;;;;9.80;4.15;;;;;;;12.42;88.61;100937.50;4975688;28;20031;-53
2023/10/12 14:18:28;;;;;;;9.95;3.75;;;;;;;12.54;87.59;100939.50;4975591;28;20097;-54
2023/10/12 14:20:56;;;;;;;10.20;3.83;;;;;;;12.41;88.34;100938.53;4975378;28;20030;-49